createdAt,value
2019-02-24T00:01:34.335Z,20.77
2019-02-24T00:04:02.745Z,24.80
2019-02-24T00:06:31.238Z,22.27
2019-02-24T00:08:59.706Z,18.83
2019-02-24T00:11:28.119Z,19.83
2019-02-24T00:13:56.521Z,20.27
2019-02-24T00:16:24.926Z,22.73
2019-02-24T00:18:53.374Z,21.90
2019-02-24T00:21:21.784Z,18.67
2019-02-24T00:23:50.229Z,21.27
2019-02-24T00:26:18.624Z,19.33
2019-02-24T00:28:47.066Z,20.70
2019-02-24T00:31:15.464Z,21.73
2019-02-24T00:33:43.904Z,21.80
2019-02-24T00:36:12.304Z,22.20
2019-02-24T00:38:40.746Z,19.17
2019-02-24T00:41:09.140Z,19.37
2019-02-24T00:43:37.577Z,21.10
2019-02-24T00:46:06.008Z,17.10
2019-02-24T00:48:34.448Z,17.60
2019-02-24T00:51:02.874Z,19.70
2019-02-24T00:53:31.321Z,18.10
2019-02-24T00:55:59.722Z,20.77
2019-02-24T00:58:28.155Z,17.97
2019-02-24T01:00:56.557Z,18.40
2019-02-24T01:03:24.989Z,18.97
2019-02-24T01:05:53.463Z,30.07
2019-02-24T01:08:21.914Z,16.40
2019-02-24T01:10:50.317Z,16.03
2019-02-24T01:13:18.744Z,17.97
2019-02-24T01:15:47.148Z,17.37
2019-02-24T01:18:15.552Z,16.47
2019-02-24T01:20:43.950Z,15.20
2019-02-24T01:23:12.369Z,14.83
2019-02-24T01:25:40.769Z,16.90
2019-02-24T01:28:09.166Z,16.10
2019-02-24T01:30:37.567Z,17.83
2019-02-24T01:33:05.970Z,15.40
2019-02-24T01:35:34.425Z,18.87
2019-02-24T01:38:02.854Z,17.33
2019-02-24T01:40:31.354Z,14.90
2019-02-24T01:42:59.791Z,14.17
2019-02-24T01:45:28.188Z,17.13
2019-02-24T01:47:56.592Z,13.83
2019-02-24T01:50:24.990Z,14.17
2019-02-24T01:52:53.389Z,13.40
2019-02-24T01:55:21.792Z,15.23
2019-02-24T01:57:50.190Z,15.13
2019-02-24T02:00:18.589Z,13.07
2019-02-24T02:02:47.008Z,12.73
2019-02-24T02:05:15.409Z,13.87
2019-02-24T02:07:43.805Z,13.13
2019-02-24T02:10:12.206Z,14.30
2019-02-24T02:12:40.603Z,12.70
2019-02-24T02:15:09.079Z,15.97
2019-02-24T02:17:37.467Z,14.10
2019-02-24T02:20:08.420Z,12.90
2019-02-24T02:22:36.821Z,13.63
2019-02-24T02:25:07.199Z,12.60
2019-02-24T02:27:35.603Z,12.30
2019-02-24T02:30:04.353Z,12.07
2019-02-24T02:32:32.749Z,12.40
2019-02-24T02:35:01.181Z,10.77
2019-02-24T02:37:29.664Z,12.53
2019-02-24T02:39:58.062Z,14.40
2019-02-24T02:42:26.463Z,12.90
2019-02-24T02:44:54.869Z,10.90
2019-02-24T02:47:23.338Z,13.77
2019-02-24T02:49:51.731Z,11.63
2019-02-24T02:52:20.120Z,13.57
2019-02-24T02:54:48.523Z,12.30
2019-02-24T02:57:16.923Z,12.93
2019-02-24T02:59:45.317Z,12.40
2019-02-24T03:02:23.788Z,10.77
2019-02-24T03:04:43.881Z,13.10
2019-02-24T03:07:13.905Z,11.73
2019-02-24T03:09:42.444Z,13.57
2019-02-24T03:12:10.848Z,10.57
2019-02-24T03:14:39.282Z,12.23
2019-02-24T03:17:07.681Z,11.73
2019-02-24T03:19:36.113Z,10.73
2019-02-24T03:22:04.511Z,10.97
2019-02-24T03:24:32.979Z,10.90
2019-02-24T03:27:01.362Z,12.60
2019-02-24T03:29:29.800Z,10.83
2019-02-24T03:31:58.202Z,10.60
2019-02-24T03:34:26.636Z,13.50
2019-02-24T03:36:55.043Z,12.00
2019-02-24T03:39:23.467Z,11.43
2019-02-24T03:41:51.859Z,13.07
2019-02-24T03:44:20.314Z,10.97
2019-02-24T03:46:48.712Z,11.87
2019-02-24T03:49:17.144Z,10.73
2019-02-24T03:51:45.535Z,11.33
2019-02-24T03:54:14.041Z,11.33
2019-02-24T03:56:42.437Z,11.37
2019-02-24T03:59:15.042Z,9.20
2019-02-24T04:01:41.003Z,11.07
2019-02-24T04:04:09.436Z,11.27
2019-02-24T04:06:37.828Z,10.60
2019-02-24T04:09:06.459Z,13.20
2019-02-24T04:11:34.860Z,9.03
2019-02-24T04:14:03.261Z,10.27
2019-02-24T04:16:31.686Z,9.03
2019-02-24T04:19:00.083Z,11.03
2019-02-24T04:21:28.551Z,10.17
2019-02-24T04:23:56.961Z,12.97
2019-02-24T04:26:25.351Z,11.27
2019-02-24T04:28:53.753Z,11.20
2019-02-24T04:31:22.156Z,10.80
2019-02-24T04:33:50.544Z,9.00
2019-02-24T04:36:18.953Z,10.50
2019-02-24T04:38:47.346Z,9.67
2019-02-24T04:41:15.752Z,10.67
2019-02-24T04:43:44.141Z,8.67
2019-02-24T04:46:12.548Z,10.73
2019-02-24T04:48:41.144Z,9.83
2019-02-24T04:51:09.540Z,12.63
2019-02-24T04:53:37.942Z,12.43
2019-02-24T04:56:06.403Z,11.30
2019-02-24T04:58:34.871Z,11.77
2019-02-24T05:01:03.285Z,9.57
2019-02-24T05:03:31.672Z,13.27
2019-02-24T05:06:00.072Z,11.13
2019-02-24T05:08:28.569Z,9.73
2019-02-24T05:10:56.973Z,11.97
2019-02-24T05:13:25.357Z,11.17
2019-02-24T05:15:53.771Z,11.13
2019-02-24T05:18:22.273Z,10.23
2019-02-24T05:20:50.665Z,9.90
2019-02-24T05:23:19.080Z,12.57
2019-02-24T05:25:47.492Z,12.83
2019-02-24T05:28:15.897Z,11.70
2019-02-24T05:30:44.298Z,11.20
2019-02-24T05:33:12.701Z,10.63
2019-02-24T05:35:41.105Z,12.30
2019-02-24T05:38:09.504Z,12.47
2019-02-24T05:40:37.899Z,11.67
2019-02-24T05:43:06.370Z,11.40
2019-02-24T05:45:34.808Z,11.87
2019-02-24T05:48:03.276Z,11.00
2019-02-24T05:50:31.696Z,11.87
2019-02-24T05:53:00.089Z,13.40
2019-02-24T05:55:28.532Z,15.20
2019-02-24T05:57:56.929Z,14.37
2019-02-24T06:00:25.390Z,19.60
2019-02-24T06:02:53.792Z,12.87
2019-02-24T06:05:22.241Z,13.43
2019-02-24T06:07:50.644Z,14.47
2019-02-24T06:10:19.064Z,16.13
2019-02-24T06:12:47.465Z,15.73
2019-02-24T06:15:15.902Z,20.37
2019-02-24T06:17:44.363Z,19.80
2019-02-24T06:20:12.783Z,16.13
2019-02-24T06:22:41.180Z,18.13
2019-02-24T06:25:09.591Z,13.10
2019-02-24T06:27:38.007Z,16.93
2019-02-24T06:30:08.181Z,18.17
2019-02-24T06:32:36.571Z,10.53
2019-02-24T06:35:06.945Z,17.07
2019-02-24T06:37:35.345Z,14.27
2019-02-24T06:40:04.411Z,16.97
2019-02-24T06:42:32.814Z,18.47
2019-02-24T06:45:01.212Z,19.60
2019-02-24T06:47:29.619Z,24.03
2019-02-24T06:49:58.043Z,21.30
2019-02-24T06:52:28.053Z,23.83
2019-02-24T06:54:56.619Z,24.93
2019-02-24T06:57:25.025Z,26.40
2019-02-24T06:59:53.429Z,25.17
2019-02-24T07:02:21.849Z,28.70
2019-02-24T07:04:50.248Z,29.23
2019-02-24T07:07:18.763Z,28.63
2019-02-24T07:09:47.230Z,26.00
2019-02-24T07:12:15.651Z,27.00
2019-02-24T07:14:44.059Z,26.87
2019-02-24T07:17:12.504Z,27.70
2019-02-24T07:19:40.906Z,28.77
2019-02-24T07:22:09.337Z,28.20
2019-02-24T07:24:37.732Z,27.93
2019-02-24T07:27:06.159Z,26.50
2019-02-24T07:29:34.610Z,27.30
2019-02-24T07:32:03.051Z,25.53
2019-02-24T07:34:31.461Z,28.90
2019-02-24T07:36:59.875Z,25.93
2019-02-24T07:39:28.274Z,25.67
2019-02-24T07:41:56.681Z,25.70
2019-02-24T07:44:25.146Z,24.37
2019-02-24T07:46:53.549Z,26.03
2019-02-24T07:49:21.964Z,24.70
2019-02-24T07:51:50.379Z,25.73
2019-02-24T07:54:18.780Z,25.13
2019-02-24T07:56:47.190Z,25.83
2019-02-24T07:59:15.614Z,27.67
2019-02-24T08:01:44.029Z,23.57
2019-02-24T08:04:12.425Z,22.17
2019-02-24T08:06:40.823Z,24.63
2019-02-24T08:09:09.220Z,21.27
2019-02-24T08:11:37.633Z,35.23
2019-02-24T08:14:06.038Z,26.50
2019-02-24T08:16:34.486Z,25.77
2019-02-24T08:19:02.932Z,29.60
2019-02-24T08:21:31.333Z,24.47
2019-02-24T08:23:59.737Z,25.53
2019-02-24T08:26:28.148Z,23.70
2019-02-24T08:28:56.556Z,21.83
2019-02-24T08:31:24.986Z,29.57
2019-02-24T08:33:53.395Z,22.87
2019-02-24T08:36:21.894Z,27.27
2019-02-24T08:38:50.362Z,21.03
2019-02-24T08:41:18.781Z,23.23
2019-02-24T08:43:47.184Z,20.77
2019-02-24T08:46:15.613Z,20.87
2019-02-24T08:48:44.010Z,20.40
2019-02-24T08:51:12.501Z,20.03
2019-02-24T08:53:40.899Z,22.70
2019-02-24T08:56:09.339Z,19.70
2019-02-24T08:58:37.759Z,22.83
2019-02-24T09:01:06.204Z,22.23
2019-02-24T09:03:34.597Z,20.63
2019-02-24T09:06:03.014Z,20.77
2019-02-24T09:08:31.410Z,22.90
2019-02-24T09:10:59.808Z,23.10
2019-02-24T09:13:28.281Z,23.23
2019-02-24T09:15:56.678Z,21.43
2019-02-24T09:18:25.074Z,26.10
2019-02-24T09:20:53.476Z,21.83
2019-02-24T09:23:21.946Z,22.53
2019-02-24T09:25:50.359Z,20.77
2019-02-24T09:28:18.764Z,20.63
2019-02-24T09:30:47.165Z,22.43
2019-02-24T09:33:15.651Z,17.97
2019-02-24T09:35:44.053Z,19.80
2019-02-24T09:38:12.505Z,21.23
2019-02-24T09:40:40.906Z,19.50
2019-02-24T09:43:09.314Z,19.00
2019-02-24T09:45:37.724Z,19.77
2019-02-24T09:48:06.129Z,16.93
2019-02-24T09:50:34.568Z,22.20
2019-02-24T09:53:02.978Z,17.70
2019-02-24T09:55:31.369Z,19.53
2019-02-24T09:57:59.775Z,18.97
2019-02-24T10:00:28.176Z,16.13
2019-02-24T10:02:57.635Z,19.37
2019-02-24T10:05:26.205Z,19.60
2019-02-24T10:07:54.631Z,18.30
2019-02-24T10:10:23.098Z,18.80
2019-02-24T10:12:51.527Z,16.70
2019-02-24T10:15:19.929Z,21.17
2019-02-24T10:17:48.379Z,16.93
2019-02-24T10:20:16.794Z,19.17
2019-02-24T10:22:45.212Z,17.97
2019-02-24T10:25:13.612Z,19.17
2019-02-24T10:27:42.105Z,18.93
2019-02-24T10:30:12.538Z,16.73
2019-02-24T10:32:40.988Z,17.20
2019-02-24T10:35:09.385Z,17.67
2019-02-24T10:37:37.812Z,19.20
2019-02-24T10:40:12.627Z,17.30
2019-02-24T10:42:41.194Z,18.10
2019-02-24T10:45:12.258Z,18.20
2019-02-24T10:47:40.664Z,18.03
2019-02-24T10:50:11.807Z,18.30
2019-02-24T10:52:40.215Z,20.10
2019-02-24T10:55:08.783Z,16.47
2019-02-24T10:57:37.290Z,15.97
2019-02-24T11:00:17.724Z,20.20
2019-02-24T11:02:46.123Z,16.87
2019-02-24T11:05:15.390Z,19.07
2019-02-24T11:07:43.861Z,18.77
2019-02-24T11:10:12.266Z,18.17
2019-02-24T11:12:40.743Z,16.17
2019-02-24T11:15:11.159Z,14.60
2019-02-24T11:17:39.564Z,18.07
2019-02-24T11:20:14.174Z,16.33
2019-02-24T11:22:42.589Z,17.47
2019-02-24T11:25:11.780Z,12.83
2019-02-24T11:27:40.199Z,15.83
2019-02-24T11:30:11.577Z,17.57
2019-02-24T11:32:40.031Z,18.00
2019-02-24T11:35:12.212Z,17.47
2019-02-24T11:37:40.657Z,15.53
2019-02-24T11:40:11.451Z,16.00
2019-02-24T11:42:39.891Z,16.83
2019-02-24T11:45:09.433Z,16.67
2019-02-24T11:47:37.884Z,17.03
2019-02-24T11:50:08.729Z,17.30
2019-02-24T11:52:37.162Z,14.50
2019-02-24T11:55:06.798Z,15.37
2019-02-24T11:57:35.219Z,16.23
2019-02-24T12:00:03.627Z,17.90
2019-02-24T12:02:34.429Z,17.87
2019-02-24T12:05:02.204Z,16.53
2019-02-24T12:07:30.632Z,14.80
2019-02-24T12:09:59.034Z,18.07
2019-02-24T12:12:27.451Z,15.60
2019-02-24T12:14:55.857Z,16.80
2019-02-24T12:17:24.297Z,15.10
2019-02-24T12:19:52.702Z,20.07
2019-02-24T12:22:21.140Z,17.30
2019-02-24T12:24:49.539Z,16.63
2019-02-24T12:27:17.958Z,16.10
2019-02-24T12:29:46.357Z,15.83
2019-02-24T12:32:14.755Z,17.07
2019-02-24T12:34:43.223Z,18.83
2019-02-24T12:37:11.631Z,17.57
2019-02-24T12:39:40.144Z,17.83
2019-02-24T12:42:08.590Z,17.37
2019-02-24T12:44:37.259Z,18.87
2019-02-24T12:47:05.666Z,16.83
2019-02-24T12:49:34.093Z,16.77
2019-02-24T12:52:02.523Z,19.47
2019-02-24T12:54:30.938Z,16.30
2019-02-24T12:56:59.355Z,16.40
2019-02-24T12:59:28.509Z,21.37
2019-02-24T13:02:05.271Z,16.67
2019-02-24T13:04:28.841Z,16.00
2019-02-24T13:06:57.735Z,16.93
2019-02-24T13:09:26.202Z,17.27
2019-02-24T13:11:54.604Z,15.20
2019-02-24T13:14:23.009Z,16.27
2019-02-24T13:16:51.427Z,17.33
2019-02-24T13:19:19.828Z,18.30
2019-02-24T13:21:48.224Z,17.77
2019-02-24T13:24:16.653Z,16.63
2019-02-24T13:26:45.053Z,17.20
2019-02-24T13:29:13.462Z,15.77
2019-02-24T13:31:41.853Z,16.33
2019-02-24T13:34:10.262Z,14.93
2019-02-24T13:36:38.762Z,17.43
2019-02-24T13:39:07.272Z,17.07
2019-02-24T13:41:35.678Z,17.53
2019-02-24T13:44:04.080Z,15.83
2019-02-24T13:46:32.576Z,15.40
2019-02-24T13:49:00.981Z,17.73
2019-02-24T13:51:29.399Z,15.17
2019-02-24T13:53:57.801Z,15.80
2019-02-24T13:56:26.202Z,15.93
2019-02-24T13:58:54.707Z,19.50
2019-02-24T14:01:23.468Z,17.53
2019-02-24T14:03:51.867Z,15.90
2019-02-24T14:06:20.509Z,15.77
2019-02-24T14:08:48.938Z,16.80
2019-02-24T14:11:17.329Z,14.80
2019-02-24T14:13:45.747Z,17.33
2019-02-24T14:16:14.149Z,17.30
2019-02-24T14:18:42.662Z,17.93
2019-02-24T14:21:11.068Z,14.57
2019-02-24T14:23:39.498Z,15.57
2019-02-24T14:26:07.971Z,14.77
2019-02-24T14:28:38.253Z,17.70
2019-02-24T14:31:06.669Z,16.30
2019-02-24T14:33:35.115Z,15.43
2019-02-24T14:36:03.513Z,16.37
2019-02-24T14:38:31.948Z,17.43
2019-02-24T14:41:00.348Z,18.20
2019-02-24T14:43:28.795Z,16.30
2019-02-24T14:45:57.196Z,15.73
2019-02-24T14:48:25.628Z,16.50
2019-02-24T14:50:54.028Z,16.27
2019-02-24T14:53:22.442Z,15.67
2019-02-24T14:55:50.850Z,14.67
2019-02-24T14:58:19.246Z,16.17
2019-02-24T15:00:49.277Z,15.07
2019-02-24T15:03:17.681Z,13.80
2019-02-24T15:05:46.077Z,14.73
2019-02-24T15:08:14.486Z,15.63
2019-02-24T15:10:42.887Z,15.23
2019-02-24T15:13:11.282Z,14.80
2019-02-24T15:15:39.684Z,15.30
2019-02-24T15:18:08.087Z,15.50
2019-02-24T15:20:36.498Z,17.90
2019-02-24T15:23:06.668Z,19.23
2019-02-24T15:25:35.030Z,20.73
2019-02-24T15:28:03.253Z,16.03
2019-02-24T15:30:38.977Z,18.37
2019-02-24T15:33:07.377Z,20.93
2019-02-24T15:35:35.914Z,18.53
2019-02-24T15:38:04.324Z,17.87
2019-02-24T15:40:32.745Z,19.00
2019-02-24T15:43:01.143Z,20.30
2019-02-24T15:45:29.569Z,22.13
2019-02-24T15:47:59.603Z,16.60
2019-02-24T15:50:28.039Z,18.20
2019-02-24T15:52:56.444Z,17.80
2019-02-24T15:55:24.880Z,18.93
2019-02-24T15:57:53.281Z,19.53
2019-02-24T16:00:22.975Z,19.17
2019-02-24T16:03:00.646Z,17.43
2019-02-24T16:05:21.549Z,20.07
2019-02-24T16:07:49.942Z,19.23
2019-02-24T16:10:22.517Z,19.23
2019-02-24T16:12:50.921Z,21.07
2019-02-24T16:15:26.360Z,19.47
2019-02-24T16:17:54.594Z,17.47
2019-02-24T16:20:31.162Z,18.90
2019-02-24T16:22:59.565Z,17.97
2019-02-24T16:25:27.970Z,19.00
2019-02-24T16:27:56.375Z,17.00
2019-02-24T16:30:24.786Z,17.73
2019-02-24T16:32:53.186Z,18.90
2019-02-24T16:35:21.589Z,19.13
2019-02-24T16:37:49.991Z,18.20
2019-02-24T16:40:27.633Z,18.67
2019-02-24T16:42:56.039Z,16.87
2019-02-24T16:45:24.437Z,18.07
2019-02-24T16:47:52.836Z,19.63
2019-02-24T16:50:22.284Z,16.50
2019-02-24T16:52:50.739Z,18.03
2019-02-24T16:55:19.141Z,17.77
2019-02-24T16:57:50.309Z,18.87
2019-02-24T17:00:24.000Z,20.03
2019-02-24T17:02:52.399Z,20.47
2019-02-24T17:05:20.831Z,20.17
2019-02-24T17:07:49.440Z,19.93
2019-02-24T17:10:23.935Z,19.40
2019-02-24T17:12:52.340Z,21.13
2019-02-24T17:15:20.782Z,17.17
2019-02-24T17:17:49.180Z,18.63
2019-02-24T17:20:26.739Z,20.43
2019-02-24T17:22:55.212Z,20.50
2019-02-24T17:25:23.676Z,20.37
2019-02-24T17:27:52.082Z,18.43
2019-02-24T17:30:20.499Z,18.03
2019-02-24T17:32:48.907Z,22.07
2019-02-24T17:35:17.358Z,20.07
2019-02-24T17:37:45.750Z,17.20
2019-02-24T17:40:19.522Z,18.17
2019-02-24T17:42:49.028Z,20.17
2019-02-24T17:45:17.796Z,18.60
2019-02-24T17:47:46.194Z,18.30
2019-02-24T17:50:16.629Z,19.17
2019-02-24T17:52:45.029Z,21.17
2019-02-24T17:55:20.137Z,19.47
2019-02-24T17:57:50.162Z,19.33
2019-02-24T18:00:42.341Z,20.60
2019-02-24T18:03:10.765Z,17.93
2019-02-24T18:05:39.174Z,19.37
2019-02-24T18:08:07.571Z,20.07
2019-02-24T18:10:35.982Z,23.10
2019-02-24T18:13:04.379Z,21.00
2019-02-24T18:15:32.866Z,20.30
2019-02-24T18:18:01.264Z,20.47
2019-02-24T18:20:29.772Z,22.10
2019-02-24T18:22:58.183Z,22.97
2019-02-24T18:25:26.622Z,21.23
2019-02-24T18:27:55.029Z,24.63
2019-02-24T18:30:25.661Z,21.63
2019-02-24T18:32:54.197Z,22.43
2019-02-24T18:35:22.633Z,29.67
2019-02-24T18:37:51.056Z,27.03
2019-02-24T18:40:19.509Z,29.63
2019-02-24T18:42:47.918Z,27.47
2019-02-24T18:45:16.337Z,28.93
2019-02-24T18:47:44.760Z,27.40
2019-02-24T18:50:15.913Z,26.20
2019-02-24T18:52:44.315Z,27.10
2019-02-24T18:55:13.191Z,32.53
2019-02-24T18:57:41.586Z,30.00
2019-02-24T19:00:12.960Z,28.67
2019-02-24T19:02:41.364Z,30.00
2019-02-24T19:05:09.958Z,27.90
2019-02-24T19:07:38.353Z,32.30
2019-02-24T19:10:10.144Z,32.47
2019-02-24T19:12:38.549Z,29.73
2019-02-24T19:15:15.488Z,29.30
2019-02-24T19:17:43.893Z,30.93
2019-02-24T19:20:15.036Z,31.00
2019-02-24T19:22:43.432Z,34.40
2019-02-24T19:25:12.336Z,31.27
2019-02-24T19:27:40.734Z,30.23
2019-02-24T19:30:12.175Z,27.10
2019-02-24T19:32:40.702Z,34.17
2019-02-24T19:35:10.738Z,30.37
2019-02-24T19:37:40.562Z,33.87
2019-02-24T19:40:12.233Z,27.73
2019-02-24T19:42:40.655Z,29.40
2019-02-24T19:45:11.597Z,25.97
2019-02-24T19:47:40.016Z,29.50
2019-02-24T19:50:12.005Z,36.93
2019-02-24T19:52:40.628Z,36.33
2019-02-24T19:55:10.573Z,33.73
2019-02-24T19:57:39.018Z,42.57
2019-02-24T20:00:24.893Z,30.37
2019-02-24T20:02:53.292Z,28.80
2019-02-24T20:05:21.772Z,27.30
2019-02-24T20:07:50.178Z,25.80
2019-02-24T20:10:21.179Z,28.40
2019-02-24T20:12:49.596Z,26.40
2019-02-24T20:15:18.059Z,26.13
2019-02-24T20:17:48.099Z,28.30
2019-02-24T20:20:17.236Z,20.60
2019-02-24T20:22:45.806Z,22.63
2019-02-24T20:25:16.511Z,24.93
2019-02-24T20:27:44.911Z,24.63
2019-02-24T20:30:28.222Z,25.37
2019-02-24T20:32:56.667Z,25.07
2019-02-24T20:35:25.081Z,22.97
2019-02-24T20:37:53.486Z,26.17
2019-02-24T20:40:21.900Z,21.93
2019-02-24T20:42:50.289Z,22.90
2019-02-24T20:45:20.886Z,20.87
2019-02-24T20:47:49.289Z,21.07
2019-02-24T20:50:23.303Z,22.10
2019-02-24T20:52:51.725Z,22.67
2019-02-24T20:55:21.754Z,20.10
2019-02-24T20:57:50.149Z,19.50
2019-02-24T21:00:27.488Z,19.63
2019-02-24T21:02:55.940Z,18.83
2019-02-24T21:05:24.322Z,22.57
2019-02-24T21:07:52.802Z,18.87
2019-02-24T21:10:21.204Z,19.63
2019-02-24T21:12:49.642Z,20.00
2019-02-24T21:15:18.578Z,19.37
2019-02-24T21:17:47.001Z,21.23
2019-02-24T21:20:17.848Z,18.03
2019-02-24T21:22:46.285Z,20.33
2019-02-24T21:25:14.787Z,22.23
2019-02-24T21:27:44.901Z,18.27
2019-02-24T21:30:15.882Z,22.37
2019-02-24T21:32:44.283Z,22.47
2019-02-24T21:35:13.023Z,20.80
2019-02-24T21:37:41.463Z,22.43
2019-02-24T21:40:11.987Z,22.43
2019-02-24T21:42:40.428Z,24.60
2019-02-24T21:45:11.824Z,22.60
2019-02-24T21:47:40.263Z,18.50
2019-02-24T21:50:12.069Z,20.37
2019-02-24T21:52:40.469Z,22.50
2019-02-24T21:55:09.921Z,21.00
2019-02-24T21:57:38.317Z,17.10
2019-02-24T22:00:18.619Z,22.70
2019-02-24T22:02:47.021Z,19.43
2019-02-24T22:05:15.421Z,18.10
2019-02-24T22:07:45.169Z,22.23
2019-02-24T22:10:14.803Z,21.27
2019-02-24T22:12:43.449Z,20.47
2019-02-24T22:15:28.047Z,19.73
2019-02-24T22:17:56.455Z,20.43
2019-02-24T22:20:24.915Z,19.67
2019-02-24T22:22:53.327Z,16.87
2019-02-24T22:25:21.744Z,19.73
2019-02-24T22:27:50.145Z,19.27
2019-02-24T22:30:20.854Z,21.23
2019-02-24T22:32:49.270Z,18.67
2019-02-24T22:35:17.671Z,18.67
2019-02-24T22:37:46.109Z,19.43
2019-02-24T22:40:16.768Z,18.00
2019-02-24T22:42:46.116Z,17.53
2019-02-24T22:45:21.771Z,21.80
2019-02-24T22:47:50.204Z,20.17
2019-02-24T22:50:18.603Z,22.33
2019-02-24T22:52:47.167Z,19.37
2019-02-24T22:55:16.516Z,19.93
2019-02-24T22:57:44.964Z,19.23
2019-02-24T23:00:36.687Z,17.57
2019-02-24T23:03:05.482Z,20.43
2019-02-24T23:05:33.903Z,18.67
2019-02-24T23:08:02.432Z,18.60
2019-02-24T23:10:30.830Z,19.57
2019-02-24T23:12:59.280Z,20.93
2019-02-24T23:15:27.697Z,21.90
2019-02-24T23:17:56.121Z,21.60
2019-02-24T23:20:24.525Z,21.60
2019-02-24T23:22:52.963Z,22.43
2019-02-24T23:25:21.530Z,21.03
2019-02-24T23:27:50.021Z,24.70
2019-02-24T23:30:18.425Z,27.37
2019-02-24T23:32:46.926Z,21.93
2019-02-24T23:35:15.324Z,19.07
2019-02-24T23:37:43.768Z,17.93
2019-02-24T23:40:12.171Z,17.73
2019-02-24T23:42:40.577Z,22.77
2019-02-24T23:45:10.997Z,17.90
2019-02-24T23:47:39.505Z,24.10
2019-02-24T23:50:10.865Z,19.40
2019-02-24T23:52:39.261Z,26.77
2019-02-24T23:55:08.600Z,15.83
2019-02-24T23:57:37.008Z,16.97
